createdAt,value
2019-01-18T00:01:45.696Z,2.83
2019-01-18T00:07:50.270Z,2.67
2019-01-18T00:13:54.915Z,2.13
2019-01-18T00:19:59.552Z,2.63
2019-01-18T00:26:04.281Z,2.73
2019-01-18T00:32:09.123Z,2.50
2019-01-18T00:38:13.771Z,2.30
2019-01-18T00:44:18.347Z,2.63
2019-01-18T00:50:23.213Z,2.97
2019-01-18T00:56:28.516Z,2.30
2019-01-18T01:02:33.226Z,2.60
2019-01-18T01:08:37.885Z,3.10
2019-01-18T01:14:42.644Z,2.23
2019-01-18T01:20:47.343Z,2.20
2019-01-18T01:26:52.067Z,2.13
2019-01-18T01:32:56.820Z,1.40
2019-01-18T01:39:01.386Z,2.07
2019-01-18T01:45:09.907Z,1.90
2019-01-18T01:51:15.675Z,2.00
2019-01-18T01:57:21.942Z,2.00
2019-01-18T02:03:27.470Z,2.10
2019-01-18T02:09:33.257Z,2.03
2019-01-18T02:15:37.844Z,1.80
2019-01-18T02:21:44.033Z,1.77
2019-01-18T02:27:48.766Z,1.53
2019-01-18T02:33:54.895Z,1.70
2019-01-18T02:40:00.789Z,1.20
2019-01-18T02:46:08.410Z,1.10
2019-01-18T02:52:13.269Z,1.70
2019-01-18T02:58:18.310Z,1.17
2019-01-18T03:04:24.512Z,1.00
2019-01-18T03:10:31.354Z,1.10
2019-01-18T03:16:36.174Z,1.03
2019-01-18T03:22:41.404Z,1.43
2019-01-18T03:28:46.183Z,1.40
2019-01-18T03:34:50.856Z,1.17
2019-01-18T03:40:55.648Z,1.20
2019-01-18T03:47:00.296Z,1.50
2019-01-18T03:53:05.185Z,1.97
2019-01-18T03:59:10.218Z,1.50
2019-01-18T04:05:17.789Z,1.60
2019-01-18T04:11:23.581Z,1.97
2019-01-18T04:17:28.324Z,2.00
2019-01-18T04:23:32.966Z,1.80
2019-01-18T04:29:37.643Z,1.97
2019-01-18T04:35:42.805Z,1.77
2019-01-18T04:41:47.898Z,2.20
2019-01-18T04:47:52.676Z,2.50
2019-01-18T04:54:01.065Z,3.73
2019-01-18T05:00:13.203Z,2.37
2019-01-18T05:06:17.757Z,2.70
2019-01-18T05:12:22.503Z,3.20
2019-01-18T05:18:27.057Z,2.90
2019-01-18T05:24:31.671Z,2.70
2019-01-18T05:30:36.268Z,2.90
2019-01-18T05:36:40.888Z,3.50
2019-01-18T05:42:46.866Z,3.33
2019-01-18T05:48:51.793Z,3.40
2019-01-18T05:54:56.372Z,3.30
2019-01-18T06:01:02.546Z,3.10
2019-01-18T06:07:07.087Z,3.00
2019-01-18T06:13:11.811Z,3.27
2019-01-18T06:19:16.353Z,3.13
2019-01-18T06:25:20.969Z,3.03
2019-01-18T06:31:25.898Z,3.27
2019-01-18T06:37:30.448Z,3.00
2019-01-18T06:43:34.990Z,3.50
2019-01-18T06:49:39.533Z,3.80
2019-01-18T06:55:45.408Z,3.80
2019-01-18T07:01:50.055Z,3.73
2019-01-18T07:07:55.146Z,3.50
2019-01-18T07:13:59.696Z,2.80
2019-01-18T07:20:08.314Z,3.83
2019-01-18T07:26:12.881Z,4.00
2019-01-18T07:32:17.420Z,3.80
2019-01-18T07:38:22.970Z,3.67
2019-01-18T07:44:27.844Z,4.20
2019-01-18T07:50:32.439Z,4.07
2019-01-18T07:56:37.002Z,3.50
2019-01-18T08:02:41.632Z,4.40
2019-01-18T08:08:46.991Z,3.43
2019-01-18T08:14:51.527Z,4.10
2019-01-18T08:20:56.079Z,3.80
2019-01-18T08:27:00.697Z,3.80
2019-01-18T08:33:05.377Z,4.40
2019-01-18T08:39:09.978Z,3.73
2019-01-18T08:45:30.617Z,3.80
2019-01-18T08:51:35.160Z,3.40
2019-01-18T08:57:40.044Z,3.40
2019-01-18T09:03:44.595Z,3.67
2019-01-18T09:09:49.138Z,3.40
2019-01-18T09:15:54.484Z,3.93
2019-01-18T09:21:59.109Z,3.80
2019-01-18T09:28:05.658Z,4.30
2019-01-18T09:34:10.686Z,4.60
2019-01-18T09:40:19.591Z,4.13
2019-01-18T09:46:24.301Z,3.80
2019-01-18T09:52:28.919Z,4.50
2019-01-18T09:58:33.702Z,3.57
2019-01-18T10:04:38.448Z,5.77
2019-01-18T10:10:43.965Z,5.40
2019-01-18T10:16:48.591Z,3.47
2019-01-18T10:22:53.295Z,4.20
2019-01-18T10:28:57.925Z,3.57
2019-01-18T10:35:02.537Z,3.53
2019-01-18T10:41:07.167Z,3.60
2019-01-18T10:47:11.852Z,4.20
2019-01-18T10:53:16.487Z,4.87
2019-01-18T10:59:22.971Z,4.53
2019-01-18T11:05:27.803Z,5.07
2019-01-18T11:11:32.466Z,6.60
2019-01-18T11:17:37.050Z,5.50
2019-01-18T11:23:41.793Z,4.70
2019-01-18T11:29:47.950Z,4.10
2019-01-18T11:35:52.750Z,4.53
2019-01-18T11:41:57.459Z,5.30
2019-01-18T11:48:03.379Z,4.60
2019-01-18T11:54:08.083Z,5.60
2019-01-18T12:00:19.932Z,4.57
2019-01-18T12:06:24.585Z,4.30
2019-01-18T12:12:29.503Z,3.63
2019-01-18T12:18:34.147Z,5.03
2019-01-18T12:24:38.895Z,5.27
2019-01-18T12:30:47.119Z,6.77
2019-01-18T12:36:58.588Z,4.83
2019-01-18T12:43:00.916Z,4.73
2019-01-18T12:49:05.796Z,3.00
2019-01-18T12:55:10.712Z,3.40
2019-01-18T13:01:15.404Z,5.73
2019-01-18T13:07:20.405Z,3.63
2019-01-18T13:13:24.952Z,4.03
2019-01-18T13:19:29.492Z,2.87
2019-01-18T13:25:34.108Z,3.27
2019-01-18T13:31:38.801Z,3.37
2019-01-18T13:37:43.461Z,4.00
2019-01-18T13:43:48.091Z,4.10
2019-01-18T13:49:54.556Z,3.50
2019-01-18T13:55:59.109Z,3.80
2019-01-18T14:02:03.780Z,4.67
2019-01-18T14:08:08.326Z,4.47
2019-01-18T14:14:14.080Z,5.37
2019-01-18T14:20:24.639Z,6.17
2019-01-18T14:26:29.313Z,6.00
2019-01-18T14:32:33.923Z,7.93
2019-01-18T14:38:38.461Z,5.20
2019-01-18T14:44:42.999Z,4.87
2019-01-18T14:50:47.607Z,4.80
2019-01-18T14:56:52.138Z,5.20
2019-01-18T15:03:02.446Z,4.70
2019-01-18T15:09:09.984Z,4.87
2019-01-18T15:15:16.226Z,4.93
2019-01-18T15:21:20.785Z,4.50
2019-01-18T15:27:25.317Z,3.90
2019-01-18T15:33:31.092Z,4.20
2019-01-18T15:39:35.623Z,3.93
2019-01-18T15:45:40.836Z,3.90
2019-01-18T15:51:45.370Z,4.00
2019-01-18T15:57:50.163Z,3.53
2019-01-18T16:03:54.780Z,4.30
2019-01-18T16:09:59.336Z,4.30
2019-01-18T16:16:08.393Z,3.70
2019-01-18T16:22:13.025Z,3.67
2019-01-18T16:28:17.566Z,4.07
2019-01-18T16:34:22.103Z,3.97
2019-01-18T16:40:35.246Z,4.33
2019-01-18T16:46:39.803Z,4.80
2019-01-18T16:52:44.718Z,3.67
2019-01-18T16:58:49.603Z,3.60
2019-01-18T17:04:54.504Z,2.87
2019-01-18T17:10:59.044Z,2.97
2019-01-18T17:17:03.593Z,2.60
2019-01-18T17:23:08.290Z,3.43
2019-01-18T17:29:12.853Z,3.30
2019-01-18T17:35:29.129Z,3.30
2019-01-18T17:41:59.025Z,2.97
2019-01-18T17:48:10.800Z,2.40
2019-01-18T17:54:28.830Z,2.67
2019-01-18T18:00:40.584Z,3.60
2019-01-18T18:07:01.556Z,6.57
2019-01-18T18:13:30.478Z,2.60
2019-01-18T18:20:07.820Z,3.40
2019-01-18T18:26:46.686Z,3.10
2019-01-18T18:33:10.947Z,3.00
2019-01-18T18:39:20.201Z,2.50
2019-01-18T18:45:40.986Z,2.50
2019-01-18T18:52:30.780Z,2.93
2019-01-18T18:58:56.723Z,2.83
2019-01-18T19:05:20.408Z,2.40
2019-01-18T19:11:35.591Z,2.60
2019-01-18T19:18:08.543Z,2.20
2019-01-18T19:24:56.894Z,2.20
2019-01-18T19:31:30.674Z,1.90
2019-01-18T19:37:55.869Z,2.40
2019-01-18T19:44:05.132Z,2.60
2019-01-18T19:50:33.508Z,2.60
2019-01-18T19:56:51.550Z,3.10
2019-01-18T20:03:16.997Z,3.53
2019-01-18T20:09:33.665Z,3.70
2019-01-18T20:15:54.654Z,3.83
2019-01-18T20:22:03.981Z,4.30
2019-01-18T20:28:30.832Z,3.83
2019-01-18T20:34:54.115Z,4.47
2019-01-18T20:41:28.637Z,4.00
2019-01-18T20:48:13.694Z,5.10
2019-01-18T20:54:49.797Z,4.87
2019-01-18T21:01:01.867Z,5.60
2019-01-18T21:07:25.670Z,4.37
2019-01-18T21:13:52.718Z,4.83
2019-01-18T21:20:04.785Z,4.60
2019-01-18T21:26:20.818Z,5.80
2019-01-18T21:32:55.786Z,5.53
2019-01-18T21:39:07.867Z,4.70
2019-01-18T21:45:22.649Z,4.17
2019-01-18T21:52:00.094Z,3.97
2019-01-18T21:58:14.939Z,4.70
2019-01-18T22:04:28.979Z,3.73
2019-01-18T22:10:44.058Z,3.70
2019-01-18T22:17:18.548Z,3.40
2019-01-18T22:23:36.620Z,3.53
2019-01-18T22:29:58.913Z,3.53
2019-01-18T22:36:42.482Z,4.20
2019-01-18T22:43:09.524Z,3.80
2019-01-18T22:49:54.381Z,3.67
2019-01-18T22:56:39.387Z,5.20
2019-01-18T23:02:54.068Z,4.17
2019-01-18T23:09:21.238Z,4.10
2019-01-18T23:16:19.742Z,5.07
2019-01-18T23:22:36.944Z,4.60
2019-01-18T23:29:11.503Z,4.77
2019-01-18T23:35:41.151Z,3.90
2019-01-18T23:42:21.538Z,3.60
2019-01-18T23:48:42.983Z,3.80
2019-01-18T23:55:01.529Z,3.53
